sensor_id;sensor_type;location;lat;lon;timestamp;pressure;altitude;pressure_sealevel;temperature;humidity
20003;BME280;10162;41.600;23.806;2023-04-22T00:04:13;94839.38;;;9.06;100.00
20003;BME280;10162;41.600;23.806;2023-04-22T00:06:40;94842.06;;;8.85;100.00
20003;BME280;10162;41.600;23.806;2023-04-22T00:09:06;94839.56;;;8.70;100.00
20003;BME280;10162;41.600;23.806;2023-04-22T00:15:08;94857.19;;;8.41;100.00
20003;BME280;10162;41.600;23.806;2023-04-22T00:17:35;94842.41;;;8.48;100.00
20003;BME280;10162;41.600;23.806;2023-04-22T00:20:01;94859.22;;;8.73;100.00
20003;BME280;10162;41.600;23.806;2023-04-22T00:22:30;94858.47;;;8.79;100.00
20003;BME280;10162;41.600;23.806;2023-04-22T00:24:56;94849.66;;;8.52;100.00
20003;BME280;10162;41.600;23.806;2023-04-22T00:27:22;94882.69;;;8.73;100.00
20003;BME280;10162;41.600;23.806;2023-04-22T00:33:00;94860.69;;;8.54;100.00
20003;BME280;10162;41.600;23.806;2023-04-22T00:35:26;94867.75;;;8.60;100.00
20003;BME280;10162;41.600;23.806;2023-04-22T00:37:52;94847.72;;;8.61;100.00
20003;BME280;10162;41.600;23.806;2023-04-22T00:40:34;94850.75;;;8.64;100.00
20003;BME280;10162;41.600;23.806;2023-04-22T00:43:01;94864.59;;;8.65;100.00
20003;BME280;10162;41.600;23.806;2023-04-22T00:45:29;94856.81;;;8.71;100.00
20003;BME280;10162;41.600;23.806;2023-04-22T00:47:56;94857.88;;;8.56;100.00
20003;BME280;10162;41.600;23.806;2023-04-22T00:54:16;94879.72;;;8.76;100.00
20003;BME280;10162;41.600;23.806;2023-04-22T00:56:42;94860.78;;;8.40;100.00
20003;BME280;10162;41.600;23.806;2023-04-22T00:59:08;94880.00;;;8.60;100.00
20003;BME280;10162;41.600;23.806;2023-04-22T01:05:07;94867.44;;;8.49;100.00
20003;BME280;10162;41.600;23.806;2023-04-22T01:07:35;94864.72;;;8.57;100.00
20003;BME280;10162;41.600;23.806;2023-04-22T01:10:05;94875.84;;;8.72;100.00
20003;BME280;10162;41.600;23.806;2023-04-22T01:12:31;94848.03;;;8.51;100.00
20003;BME280;10162;41.600;23.806;2023-04-22T01:14:57;94867.31;;;8.85;100.00
20003;BME280;10162;41.600;23.806;2023-04-22T01:17:24;94854.47;;;8.55;100.00
20003;BME280;10162;41.600;23.806;2023-04-22T01:19:50;94845.44;;;8.51;100.00
20003;BME280;10162;41.600;23.806;2023-04-22T01:22:18;94860.94;;;8.59;100.00
20003;BME280;10162;41.600;23.806;2023-04-22T01:24:45;94875.63;;;8.95;100.00
20003;BME280;10162;41.600;23.806;2023-04-22T01:27:12;94860.47;;;9.05;100.00
20003;BME280;10162;41.600;23.806;2023-04-22T01:29:38;94847.69;;;8.82;100.00
20003;BME280;10162;41.600;23.806;2023-04-22T01:32:05;94870.84;;;8.98;100.00
20003;BME280;10162;41.600;23.806;2023-04-22T01:34:31;94843.91;;;8.91;100.00
20003;BME280;10162;41.600;23.806;2023-04-22T01:36:58;94866.41;;;9.27;100.00
20003;BME280;10162;41.600;23.806;2023-04-22T01:39:24;94858.75;;;9.25;100.00
20003;BME280;10162;41.600;23.806;2023-04-22T01:42:02;94854.19;;;9.34;100.00
20003;BME280;10162;41.600;23.806;2023-04-22T01:44:28;94872.28;;;9.42;100.00
20003;BME280;10162;41.600;23.806;2023-04-22T01:46:54;94878.63;;;9.26;100.00
20003;BME280;10162;41.600;23.806;2023-04-22T01:49:20;94885.09;;;9.37;100.00
20003;BME280;10162;41.600;23.806;2023-04-22T01:55:40;94870.94;;;9.18;100.00
20003;BME280;10162;41.600;23.806;2023-04-22T01:58:10;94864.13;;;9.17;100.00
20003;BME280;10162;41.600;23.806;2023-04-22T02:04:29;94874.56;;;8.89;100.00
20003;BME280;10162;41.600;23.806;2023-04-22T02:06:55;94884.16;;;9.10;100.00
20003;BME280;10162;41.600;23.806;2023-04-22T02:09:21;94888.44;;;9.24;100.00
20003;BME280;10162;41.600;23.806;2023-04-22T02:14:50;94875.94;;;9.13;100.00
20003;BME280;10162;41.600;23.806;2023-04-22T02:17:17;94866.75;;;9.24;100.00
20003;BME280;10162;41.600;23.806;2023-04-22T02:19:44;94872.88;;;9.03;100.00
20003;BME280;10162;41.600;23.806;2023-04-22T02:22:10;94879.31;;;9.07;100.00
20003;BME280;10162;41.600;23.806;2023-04-22T02:24:36;94870.97;;;8.90;100.00
20003;BME280;10162;41.600;23.806;2023-04-22T02:27:02;94871.97;;;8.89;100.00
20003;BME280;10162;41.600;23.806;2023-04-22T02:29:28;94866.66;;;9.04;100.00
20003;BME280;10162;41.600;23.806;2023-04-22T02:35:50;94846.09;;;8.88;100.00
20003;BME280;10162;41.600;23.806;2023-04-22T02:38:18;94857.06;;;8.77;100.00
20003;BME280;10162;41.600;23.806;2023-04-22T02:44:07;94855.66;;;9.08;100.00
20003;BME280;10162;41.600;23.806;2023-04-22T02:46:33;94856.84;;;9.06;100.00
20003;BME280;10162;41.600;23.806;2023-04-22T02:48:59;94864.13;;;9.17;100.00
20003;BME280;10162;41.600;23.806;2023-04-22T02:55:19;94859.56;;;8.63;100.00
20003;BME280;10162;41.600;23.806;2023-04-22T02:57:47;94861.81;;;8.45;100.00
20003;BME280;10162;41.600;23.806;2023-04-22T03:00:32;94868.41;;;8.41;100.00
20003;BME280;10162;41.600;23.806;2023-04-22T03:02:58;94855.00;;;8.44;100.00
20003;BME280;10162;41.600;23.806;2023-04-22T03:05:28;94868.31;;;8.56;100.00
20003;BME280;10162;41.600;23.806;2023-04-22T03:07:54;94874.13;;;8.30;100.00
20003;BME280;10162;41.600;23.806;2023-04-22T03:14:14;94856.66;;;7.88;100.00
20003;BME280;10162;41.600;23.806;2023-04-22T03:16:40;94867.25;;;8.29;100.00
20003;BME280;10162;41.600;23.806;2023-04-22T03:19:06;94838.81;;;8.06;100.00
20003;BME280;10162;41.600;23.806;2023-04-22T03:21:49;94834.91;;;7.96;100.00
20003;BME280;10162;41.600;23.806;2023-04-22T03:24:15;94838.22;;;7.68;100.00
20003;BME280;10162;41.600;23.806;2023-04-22T03:26:46;94854.94;;;7.59;100.00
20003;BME280;10162;41.600;23.806;2023-04-22T03:29:12;94842.72;;;7.60;100.00
20003;BME280;10162;41.600;23.806;2023-04-22T03:34:42;94839.16;;;7.82;100.00
20003;BME280;10162;41.600;23.806;2023-04-22T03:37:08;94854.44;;;7.34;100.00
20003;BME280;10162;41.600;23.806;2023-04-22T03:39:35;94851.09;;;7.40;100.00
20003;BME280;10162;41.600;23.806;2023-04-22T03:42:12;94883.53;;;7.59;100.00
20003;BME280;10162;41.600;23.806;2023-04-22T03:44:41;94878.50;;;7.58;100.00
20003;BME280;10162;41.600;23.806;2023-04-22T03:47:07;94865.38;;;7.44;100.00
20003;BME280;10162;41.600;23.806;2023-04-22T03:49:42;94856.69;;;7.23;100.00
20003;BME280;10162;41.600;23.806;2023-04-22T03:52:09;94878.38;;;7.30;100.00
20003;BME280;10162;41.600;23.806;2023-04-22T03:54:39;94880.59;;;7.62;100.00
20003;BME280;10162;41.600;23.806;2023-04-22T03:57:07;94871.19;;;7.82;100.00
20003;BME280;10162;41.600;23.806;2023-04-22T03:59:32;94887.06;;;7.37;100.00
20003;BME280;10162;41.600;23.806;2023-04-22T04:05:53;94900.69;;;7.54;100.00
20003;BME280;10162;41.600;23.806;2023-04-22T04:08:20;94885.75;;;7.77;100.00
20003;BME280;10162;41.600;23.806;2023-04-22T04:10:59;94885.91;;;8.11;100.00
20003;BME280;10162;41.600;23.806;2023-04-22T04:13:26;94889.00;;;8.00;100.00
20003;BME280;10162;41.600;23.806;2023-04-22T04:16:10;94905.19;;;7.96;100.00
20003;BME280;10162;41.600;23.806;2023-04-22T04:18:41;94889.41;;;8.18;100.00
20003;BME280;10162;41.600;23.806;2023-04-22T04:21:17;94893.72;;;8.47;100.00
20003;BME280;10162;41.600;23.806;2023-04-22T04:23:48;94911.84;;;8.62;100.00
20003;BME280;10162;41.600;23.806;2023-04-22T04:26:15;94908.44;;;8.61;100.00
20003;BME280;10162;41.600;23.806;2023-04-22T04:28:48;94912.63;;;8.84;100.00
20003;BME280;10162;41.600;23.806;2023-04-22T04:34:19;94908.72;;;9.29;100.00
20003;BME280;10162;41.600;23.806;2023-04-22T04:36:45;94912.13;;;9.29;100.00
20003;BME280;10162;41.600;23.806;2023-04-22T04:39:23;94903.91;;;9.26;100.00
20003;BME280;10162;41.600;23.806;2023-04-22T04:45:20;94921.13;;;9.20;100.00
20003;BME280;10162;41.600;23.806;2023-04-22T04:47:51;94934.00;;;9.63;100.00
20003;BME280;10162;41.600;23.806;2023-04-22T04:53:50;94936.66;;;9.35;100.00
20003;BME280;10162;41.600;23.806;2023-04-22T04:56:17;94924.63;;;9.75;100.00
20003;BME280;10162;41.600;23.806;2023-04-22T04:58:45;94912.91;;;9.58;100.00
20003;BME280;10162;41.600;23.806;2023-04-22T05:01:39;94928.59;;;10.12;100.00
20003;BME280;10162;41.600;23.806;2023-04-22T05:04:12;94926.25;;;10.30;100.00
20003;BME280;10162;41.600;23.806;2023-04-22T05:06:40;94919.19;;;10.17;100.00
20003;BME280;10162;41.600;23.806;2023-04-22T05:09:06;94926.84;;;10.19;100.00
20003;BME280;10162;41.600;23.806;2023-04-22T05:11:43;94920.81;;;10.25;100.00
20003;BME280;10162;41.600;23.806;2023-04-22T05:14:17;94917.41;;;10.31;100.00
20003;BME280;10162;41.600;23.806;2023-04-22T05:16:44;94920.25;;;10.43;100.00
20003;BME280;10162;41.600;23.806;2023-04-22T05:19:10;94928.13;;;10.69;100.00
20003;BME280;10162;41.600;23.806;2023-04-22T05:26:09;94916.88;;;10.75;100.00
20003;BME280;10162;41.600;23.806;2023-04-22T05:28:42;94910.44;;;11.04;100.00
20003;BME280;10162;41.600;23.806;2023-04-22T05:31:22;94931.13;;;11.18;100.00
20003;BME280;10162;41.600;23.806;2023-04-22T05:33:50;94919.06;;;11.24;100.00
20003;BME280;10162;41.600;23.806;2023-04-22T05:36:16;94922.41;;;11.57;100.00
20003;BME280;10162;41.600;23.806;2023-04-22T05:38:45;94914.16;;;11.60;100.00
20003;BME280;10162;41.600;23.806;2023-04-22T05:44:42;94898.84;;;11.51;100.00
20003;BME280;10162;41.600;23.806;2023-04-22T05:47:08;94910.09;;;11.71;100.00
20003;BME280;10162;41.600;23.806;2023-04-22T05:49:35;94901.00;;;11.87;100.00
20003;BME280;10162;41.600;23.806;2023-04-22T05:52:16;94902.94;;;12.05;100.00
20003;BME280;10162;41.600;23.806;2023-04-22T05:55:09;94900.34;;;12.36;100.00
20003;BME280;10162;41.600;23.806;2023-04-22T05:57:35;94895.53;;;12.33;100.00
20003;BME280;10162;41.600;23.806;2023-04-22T06:03:22;94917.22;;;12.47;100.00
20003;BME280;10162;41.600;23.806;2023-04-22T06:05:48;94912.59;;;12.42;100.00
20003;BME280;10162;41.600;23.806;2023-04-22T06:08:14;94897.50;;;12.69;100.00
20003;BME280;10162;41.600;23.806;2023-04-22T06:11:00;94921.94;;;12.69;100.00
20003;BME280;10162;41.600;23.806;2023-04-22T06:16:53;94910.72;;;12.56;97.87
20003;BME280;10162;41.600;23.806;2023-04-22T06:19:18;94914.34;;;12.23;98.14
20003;BME280;10162;41.600;23.806;2023-04-22T06:26:06;94930.00;;;13.24;95.20
20003;BME280;10162;41.600;23.806;2023-04-22T06:28:34;94931.91;;;13.35;92.15
20003;BME280;10162;41.600;23.806;2023-04-22T06:31:32;94938.56;;;13.38;92.91
20003;BME280;10162;41.600;23.806;2023-04-22T06:33:59;94930.56;;;13.87;89.81
20003;BME280;10162;41.600;23.806;2023-04-22T06:36:25;94918.75;;;13.78;88.44
20003;BME280;10162;41.600;23.806;2023-04-22T06:38:58;94917.34;;;13.76;91.43
20003;BME280;10162;41.600;23.806;2023-04-22T06:42:04;94928.91;;;14.41;88.91
20003;BME280;10162;41.600;23.806;2023-04-22T06:44:46;94905.06;;;14.36;88.92
20003;BME280;10162;41.600;23.806;2023-04-22T06:47:32;94913.13;;;14.41;90.23
20003;BME280;10162;41.600;23.806;2023-04-22T06:53:31;94911.00;;;14.31;85.47
20003;BME280;10162;41.600;23.806;2023-04-22T06:55:56;94911.84;;;14.62;83.93
20003;BME280;10162;41.600;23.806;2023-04-22T06:58:23;94916.16;;;15.09;81.65
20003;BME280;10162;41.600;23.806;2023-04-22T07:00:50;94907.78;;;14.89;80.97
20003;BME280;10162;41.600;23.806;2023-04-22T07:03:19;94924.81;;;14.86;80.29
20003;BME280;10162;41.600;23.806;2023-04-22T07:05:53;94918.00;;;14.97;77.53
20003;BME280;10162;41.600;23.806;2023-04-22T07:08:23;94915.16;;;15.57;75.41
20003;BME280;10162;41.600;23.806;2023-04-22T07:14:44;94900.81;;;15.88;72.66
20003;BME280;10162;41.600;23.806;2023-04-22T07:17:11;94909.28;;;16.30;70.72
20003;BME280;10162;41.600;23.806;2023-04-22T07:19:37;94899.25;;;16.15;70.96
20003;BME280;10162;41.600;23.806;2023-04-22T07:22:05;94899.75;;;16.00;70.62
20003;BME280;10162;41.600;23.806;2023-04-22T07:24:31;94916.25;;;16.36;70.27
20003;BME280;10162;41.600;23.806;2023-04-22T07:26:58;94908.81;;;16.33;68.89
20003;BME280;10162;41.600;23.806;2023-04-22T07:29:31;94902.88;;;16.26;69.05
20003;BME280;10162;41.600;23.806;2023-04-22T07:35:51;94917.75;;;16.03;69.94
20003;BME280;10162;41.600;23.806;2023-04-22T07:38:17;94919.00;;;15.89;68.66
20003;BME280;10162;41.600;23.806;2023-04-22T07:41:08;94929.09;;;15.92;69.84
20003;BME280;10162;41.600;23.806;2023-04-22T07:43:34;94935.06;;;15.99;69.23
20003;BME280;10162;41.600;23.806;2023-04-22T07:46:00;94922.41;;;16.41;66.60
20003;BME280;10162;41.600;23.806;2023-04-22T07:48:25;94917.22;;;16.46;66.69
20003;BME280;10162;41.600;23.806;2023-04-22T07:51:03;94917.91;;;16.25;67.54
20003;BME280;10162;41.600;23.806;2023-04-22T07:53:31;94910.13;;;16.19;67.54
20003;BME280;10162;41.600;23.806;2023-04-22T07:56:03;94928.03;;;16.45;66.90
20003;BME280;10162;41.600;23.806;2023-04-22T07:58:29;94900.75;;;16.11;67.40
20003;BME280;10162;41.600;23.806;2023-04-22T08:01:29;94916.56;;;16.11;68.76
20003;BME280;10162;41.600;23.806;2023-04-22T08:03:55;94916.19;;;16.19;68.01
20003;BME280;10162;41.600;23.806;2023-04-22T08:06:21;94905.41;;;15.69;70.45
20003;BME280;10162;41.600;23.806;2023-04-22T08:08:48;94899.47;;;16.42;67.88
20003;BME280;10162;41.600;23.806;2023-04-22T08:11:31;94895.59;;;16.89;66.54
20003;BME280;10162;41.600;23.806;2023-04-22T08:13:57;94898.91;;;16.97;65.15
20003;BME280;10162;41.600;23.806;2023-04-22T08:16:22;94911.19;;;17.41;63.45
20003;BME280;10162;41.600;23.806;2023-04-22T08:18:49;94883.09;;;17.35;63.38
20003;BME280;10162;41.600;23.806;2023-04-22T08:21:22;94881.47;;;17.51;61.43
20003;BME280;10162;41.600;23.806;2023-04-22T08:23:50;94883.00;;;18.07;59.31
20003;BME280;10162;41.600;23.806;2023-04-22T08:26:16;94882.34;;;17.95;58.68
20003;BME280;10162;41.600;23.806;2023-04-22T08:28:42;94898.63;;;17.65;59.23
20003;BME280;10162;41.600;23.806;2023-04-22T08:31:09;94912.00;;;17.42;58.61
20003;BME280;10162;41.600;23.806;2023-04-22T08:33:38;94906.16;;;17.40;58.30
20003;BME280;10162;41.600;23.806;2023-04-22T08:36:04;94884.38;;;16.99;57.60
20003;BME280;10162;41.600;23.806;2023-04-22T08:38:31;94894.84;;;17.61;56.79
20003;BME280;10162;41.600;23.806;2023-04-22T08:41:00;94892.72;;;17.80;56.20
20003;BME280;10162;41.600;23.806;2023-04-22T08:43:27;94863.88;;;18.22;55.85
20003;BME280;10162;41.600;23.806;2023-04-22T08:45:53;94879.97;;;18.42;54.91
20003;BME280;10162;41.600;23.806;2023-04-22T08:48:19;94892.19;;;18.21;52.90
20003;BME280;10162;41.600;23.806;2023-04-22T08:50:49;94873.34;;;17.96;54.42
20003;BME280;10162;41.600;23.806;2023-04-22T08:53:15;94858.03;;;17.98;55.30
20003;BME280;10162;41.600;23.806;2023-04-22T08:55:43;94895.81;;;18.15;53.84
20003;BME280;10162;41.600;23.806;2023-04-22T08:58:11;94873.13;;;17.97;53.84
20003;BME280;10162;41.600;23.806;2023-04-22T09:00:41;94883.75;;;17.81;51.95
20003;BME280;10162;41.600;23.806;2023-04-22T09:03:08;94870.72;;;17.57;52.15
20003;BME280;10162;41.600;23.806;2023-04-22T09:05:36;94859.53;;;18.37;51.84
20003;BME280;10162;41.600;23.806;2023-04-22T09:08:04;94851.28;;;18.87;53.07
20003;BME280;10162;41.600;23.806;2023-04-22T09:10:31;94846.34;;;19.38;50.19
20003;BME280;10162;41.600;23.806;2023-04-22T09:12:57;94862.84;;;19.92;47.90
20003;BME280;10162;41.600;23.806;2023-04-22T09:15:24;94856.28;;;19.53;48.13
20003;BME280;10162;41.600;23.806;2023-04-22T09:17:51;94865.06;;;19.21;47.32
20003;BME280;10162;41.600;23.806;2023-04-22T09:20:17;94861.00;;;19.46;48.25
20003;BME280;10162;41.600;23.806;2023-04-22T09:22:46;94868.34;;;19.38;48.72
20003;BME280;10162;41.600;23.806;2023-04-22T09:25:21;94873.53;;;19.18;47.84
20003;BME280;10162;41.600;23.806;2023-04-22T09:27:52;94858.69;;;19.17;48.93
20003;BME280;10162;41.600;23.806;2023-04-22T09:30:25;94874.31;;;19.51;44.96
20003;BME280;10162;41.600;23.806;2023-04-22T09:32:55;94851.28;;;19.19;44.60
20003;BME280;10162;41.600;23.806;2023-04-22T09:35:29;94850.84;;;18.95;43.03
20003;BME280;10162;41.600;23.806;2023-04-22T09:37:58;94835.81;;;18.47;43.80
20003;BME280;10162;41.600;23.806;2023-04-22T09:40:27;94840.75;;;18.97;45.32
20003;BME280;10162;41.600;23.806;2023-04-22T09:42:55;94819.88;;;19.43;44.52
20003;BME280;10162;41.600;23.806;2023-04-22T09:45:35;94841.47;;;19.62;42.56
20003;BME280;10162;41.600;23.806;2023-04-22T09:48:16;94827.00;;;19.90;41.46
20003;BME280;10162;41.600;23.806;2023-04-22T09:50:49;94813.34;;;19.56;43.20
20003;BME280;10162;41.600;23.806;2023-04-22T09:53:17;94800.06;;;19.51;44.29
20003;BME280;10162;41.600;23.806;2023-04-22T09:55:46;94807.44;;;20.06;41.23
20003;BME280;10162;41.600;23.806;2023-04-22T09:58:15;94815.25;;;20.43;40.42
20003;BME280;10162;41.600;23.806;2023-04-22T10:03:34;94804.66;;;19.23;43.40
20003;BME280;10162;41.600;23.806;2023-04-22T10:06:00;94809.75;;;18.93;43.05
20003;BME280;10162;41.600;23.806;2023-04-22T10:08:30;94796.75;;;18.91;45.42
20003;BME280;10162;41.600;23.806;2023-04-22T10:11:16;94800.63;;;19.16;45.49
20003;BME280;10162;41.600;23.806;2023-04-22T10:13:42;94803.34;;;19.31;44.65
20003;BME280;10162;41.600;23.806;2023-04-22T10:16:08;94805.59;;;19.02;43.70
20003;BME280;10162;41.600;23.806;2023-04-22T10:18:34;94824.81;;;19.24;43.89
20003;BME280;10162;41.600;23.806;2023-04-22T10:21:29;94824.16;;;20.06;44.29
20003;BME280;10162;41.600;23.806;2023-04-22T10:23:58;94800.94;;;20.59;42.46
20003;BME280;10162;41.600;23.806;2023-04-22T10:29:11;94798.28;;;19.71;42.45
20003;BME280;10162;41.600;23.806;2023-04-22T10:31:51;94790.84;;;19.21;41.52
20003;BME280;10162;41.600;23.806;2023-04-22T10:34:18;94798.53;;;18.81;41.12
20003;BME280;10162;41.600;23.806;2023-04-22T10:37:00;94798.38;;;18.61;39.62
20003;BME280;10162;41.600;23.806;2023-04-22T10:39:28;94813.34;;;18.77;39.04
20003;BME280;10162;41.600;23.806;2023-04-22T10:42:09;94823.63;;;18.46;39.55
20003;BME280;10162;41.600;23.806;2023-04-22T10:44:53;94814.94;;;17.75;39.52
20003;BME280;10162;41.600;23.806;2023-04-22T10:50:18;94848.44;;;17.15;41.35
20003;BME280;10162;41.600;23.806;2023-04-22T10:55:51;94832.56;;;16.48;45.11
20003;BME280;10162;41.600;23.806;2023-04-22T10:58:21;94841.91;;;16.39;45.84
20003;BME280;10162;41.600;23.806;2023-04-22T11:00:52;94824.72;;;16.53;45.45
20003;BME280;10162;41.600;23.806;2023-04-22T11:03:26;94835.16;;;16.15;47.33
20003;BME280;10162;41.600;23.806;2023-04-22T11:06:18;94829.03;;;15.97;47.84
20003;BME280;10162;41.600;23.806;2023-04-22T11:08:48;94840.41;;;15.86;49.81
20003;BME280;10162;41.600;23.806;2023-04-22T11:11:17;94836.94;;;16.26;51.50
20003;BME280;10162;41.600;23.806;2023-04-22T11:13:43;94840.72;;;15.90;50.78
20003;BME280;10162;41.600;23.806;2023-04-22T11:16:11;94846.34;;;15.30;54.56
20003;BME280;10162;41.600;23.806;2023-04-22T11:18:38;94856.59;;;15.66;55.21
20003;BME280;10162;41.600;23.806;2023-04-22T11:21:09;94836.91;;;16.54;49.17
20003;BME280;10162;41.600;23.806;2023-04-22T11:23:37;94852.94;;;17.91;47.79
20003;BME280;10162;41.600;23.806;2023-04-22T11:26:04;94863.88;;;18.48;46.67
20003;BME280;10162;41.600;23.806;2023-04-22T11:28:32;94854.66;;;18.51;46.39
20003;BME280;10162;41.600;23.806;2023-04-22T11:31:28;94867.44;;;17.67;50.77
20003;BME280;10162;41.600;23.806;2023-04-22T11:33:58;94842.09;;;18.14;50.67
20003;BME280;10162;41.600;23.806;2023-04-22T11:36:24;94865.34;;;17.69;52.22
20003;BME280;10162;41.600;23.806;2023-04-22T11:38:54;94858.41;;;17.85;51.11
20003;BME280;10162;41.600;23.806;2023-04-22T11:41:20;94850.19;;;17.81;51.77
20003;BME280;10162;41.600;23.806;2023-04-22T11:43:48;94854.50;;;17.32;49.76
20003;BME280;10162;41.600;23.806;2023-04-22T11:46:14;94851.66;;;17.55;50.38
20003;BME280;10162;41.600;23.806;2023-04-22T11:48:39;94842.38;;;17.53;51.65
20003;BME280;10162;41.600;23.806;2023-04-22T11:51:25;94854.38;;;17.99;51.78
20003;BME280;10162;41.600;23.806;2023-04-22T11:53:54;94846.34;;;17.72;51.56
20003;BME280;10162;41.600;23.806;2023-04-22T11:56:20;94842.28;;;18.08;51.28
20003;BME280;10162;41.600;23.806;2023-04-22T11:58:46;94846.16;;;18.22;50.93
20003;BME280;10162;41.600;23.806;2023-04-22T12:01:42;94848.72;;;18.17;47.21
20003;BME280;10162;41.600;23.806;2023-04-22T12:04:09;94837.28;;;18.33;46.40
20003;BME280;10162;41.600;23.806;2023-04-22T12:06:35;94833.31;;;18.63;47.98
20003;BME280;10162;41.600;23.806;2023-04-22T12:09:06;94837.56;;;18.90;44.81
20003;BME280;10162;41.600;23.806;2023-04-22T12:11:34;94845.16;;;18.82;46.02
20003;BME280;10162;41.600;23.806;2023-04-22T12:14:06;94835.56;;;18.76;46.68
20003;BME280;10162;41.600;23.806;2023-04-22T12:16:39;94833.97;;;18.48;46.74
20003;BME280;10162;41.600;23.806;2023-04-22T12:19:06;94834.53;;;19.14;46.55
20003;BME280;10162;41.600;23.806;2023-04-22T12:24:58;94827.22;;;20.60;42.90
20003;BME280;10162;41.600;23.806;2023-04-22T12:27:24;94826.69;;;20.69;41.86
20003;BME280;10162;41.600;23.806;2023-04-22T12:29:52;94819.03;;;19.85;41.60
20003;BME280;10162;41.600;23.806;2023-04-22T12:32:25;94817.22;;;19.43;41.41
20003;BME280;10162;41.600;23.806;2023-04-22T12:34:51;94782.06;;;19.16;41.32
20003;BME280;10162;41.600;23.806;2023-04-22T12:37:17;94813.88;;;20.30;39.18
20003;BME280;10162;41.600;23.806;2023-04-22T12:39:44;94791.91;;;20.65;40.08
20003;BME280;10162;41.600;23.806;2023-04-22T12:42:10;94797.81;;;19.79;44.59
20003;BME280;10162;41.600;23.806;2023-04-22T12:44:37;94813.69;;;19.74;44.05
20003;BME280;10162;41.600;23.806;2023-04-22T12:47:03;94809.72;;;19.25;46.01
20003;BME280;10162;41.600;23.806;2023-04-22T12:49:29;94804.94;;;19.27;46.87
20003;BME280;10162;41.600;23.806;2023-04-22T12:51:56;94813.38;;;19.66;47.20
20003;BME280;10162;41.600;23.806;2023-04-22T12:54:26;94816.59;;;19.73;46.55
20003;BME280;10162;41.600;23.806;2023-04-22T12:56:52;94797.19;;;19.57;45.45
20003;BME280;10162;41.600;23.806;2023-04-22T12:59:19;94812.84;;;19.22;46.43
20003;BME280;10162;41.600;23.806;2023-04-22T13:01:46;94820.63;;;19.33;47.69
20003;BME280;10162;41.600;23.806;2023-04-22T13:04:12;94804.22;;;18.99;48.53
20003;BME280;10162;41.600;23.806;2023-04-22T13:06:38;94815.94;;;18.72;48.95
20003;BME280;10162;41.600;23.806;2023-04-22T13:09:04;94815.44;;;18.21;49.60
20003;BME280;10162;41.600;23.806;2023-04-22T13:11:32;94821.19;;;17.91;50.68
20003;BME280;10162;41.600;23.806;2023-04-22T13:13:58;94829.25;;;17.80;52.13
20003;BME280;10162;41.600;23.806;2023-04-22T13:16:24;94829.22;;;18.23;51.85
20003;BME280;10162;41.600;23.806;2023-04-22T13:18:50;94819.44;;;18.24;51.22
20003;BME280;10162;41.600;23.806;2023-04-22T13:21:16;94827.38;;;17.75;52.49
20003;BME280;10162;41.600;23.806;2023-04-22T13:23:42;94835.56;;;17.57;51.32
20003;BME280;10162;41.600;23.806;2023-04-22T13:26:08;94819.88;;;17.50;51.31
20003;BME280;10162;41.600;23.806;2023-04-22T13:28:34;94811.91;;;18.10;49.46
20003;BME280;10162;41.600;23.806;2023-04-22T13:31:23;94850.56;;;17.51;50.36
20003;BME280;10162;41.600;23.806;2023-04-22T13:33:49;94838.13;;;17.13;51.06
20003;BME280;10162;41.600;23.806;2023-04-22T13:36:15;94836.47;;;16.29;53.24
20003;BME280;10162;41.600;23.806;2023-04-22T13:38:43;94849.44;;;15.90;56.87
20003;BME280;10162;41.600;23.806;2023-04-22T13:41:09;94855.13;;;15.70;59.11
20003;BME280;10162;41.600;23.806;2023-04-22T13:43:36;94847.03;;;15.60;60.40
20003;BME280;10162;41.600;23.806;2023-04-22T13:46:02;94850.19;;;15.39;60.72
20003;BME280;10162;41.600;23.806;2023-04-22T13:48:28;94859.72;;;14.94;61.55
20003;BME280;10162;41.600;23.806;2023-04-22T13:50:59;94859.94;;;15.15;60.33
20003;BME280;10162;41.600;23.806;2023-04-22T13:53:26;94866.53;;;14.60;62.13
20003;BME280;10162;41.600;23.806;2023-04-22T13:55:51;94881.69;;;14.87;62.26
20003;BME280;10162;41.600;23.806;2023-04-22T13:58:17;94878.53;;;14.56;62.65
20003;BME280;10162;41.600;23.806;2023-04-22T14:03:54;94881.06;;;14.32;66.12
20003;BME280;10162;41.600;23.806;2023-04-22T14:06:20;94880.22;;;14.20;69.50
20003;BME280;10162;41.600;23.806;2023-04-22T14:08:47;94876.41;;;13.68;81.39
20003;BME280;10162;41.600;23.806;2023-04-22T14:11:21;94915.09;;;13.18;94.89
20003;BME280;10162;41.600;23.806;2023-04-22T14:13:47;94904.56;;;12.93;100.00
20003;BME280;10162;41.600;23.806;2023-04-22T14:16:14;94932.78;;;12.73;100.00
20003;BME280;10162;41.600;23.806;2023-04-22T14:18:40;94914.69;;;12.90;100.00
20003;BME280;10162;41.600;23.806;2023-04-22T14:21:07;94926.25;;;12.57;100.00
20003;BME280;10162;41.600;23.806;2023-04-22T14:23:35;94932.06;;;12.28;100.00
20003;BME280;10162;41.600;23.806;2023-04-22T14:26:01;94943.75;;;12.25;100.00
20003;BME280;10162;41.600;23.806;2023-04-22T14:28:27;94968.44;;;12.05;100.00
20003;BME280;10162;41.600;23.806;2023-04-22T14:30:54;94953.97;;;11.95;100.00
20003;BME280;10162;41.600;23.806;2023-04-22T14:33:22;94954.00;;;12.33;100.00
20003;BME280;10162;41.600;23.806;2023-04-22T14:35:50;94987.13;;;12.15;100.00
20003;BME280;10162;41.600;23.806;2023-04-22T14:38:18;94968.91;;;12.39;100.00
20003;BME280;10162;41.600;23.806;2023-04-22T14:40:46;94978.56;;;11.88;100.00
20003;BME280;10162;41.600;23.806;2023-04-22T14:43:13;94995.81;;;12.53;100.00
20003;BME280;10162;41.600;23.806;2023-04-22T14:45:39;94976.50;;;12.48;100.00
20003;BME280;10162;41.600;23.806;2023-04-22T14:48:05;94964.94;;;12.24;100.00